x

South Bass Island, Oh (sbio1) Weather Station

3:00am - Tue 9th Feb 2016 All times are CST. -6 hours from GMT.

  • Wind
    20mph, 22mph gusts
  • Air Temp 32°f
  • Sea Pressure 1001.2mb
  • South Bass Island, Oh
  • South Bass Island, Oh

More Historic Weather Station data

Upgrade to MSW Pro to gain access to the past 30 days of data for over 8000 Wavebouys and Weather Stations around the globe.

Join Pro

Comparision Forecast

View Surf forecast
   
Tue 02/09 3:00am 20 22 mph 1001.2mb 32f
2:00am 16 18 mph 1001.4mb 33f
1:00am 17 18 mph 1001.7mb 33f
12:00am 16 17 mph 1002.1mb 33f
Mon 02/08 11:00pm 23
mph
1002.2mb 33f
10:00pm 18 20 mph 1002.4mb 35f
9:00pm 7
mph
1002.8mb 34f
8:00pm 10 11 mph 1002.9mb 34f
7:00pm 14 16 mph 1003.1mb 35f
6:00pm 20 21 mph 1003mb 35f
5:00pm 13
mph
1002.6mb 36f
4:00pm 1 2 mph 1002.2mb 36f
3:00pm 6
mph
1002mb 36f
2:00pm 6
mph
1001.7mb 36f
1:00pm 7 8 mph 1001.8mb 36f
12:00pm 6
mph
1002.2mb 35f
11:00am 11 13 mph 1002.9mb 35f
10:00am 8 9 mph 1003.1mb 35f
9:00am 11 13 mph 1003mb 35f
8:00am 9
mph
1003.5mb 36f
7:00am 8
mph
1003.6mb 36f
6:00am 6
mph
1003.6mb 37f
5:00am 10
mph
1004mb 37f
4:00am 9 10 mph 1004.2mb 38f
3:00am 8 9 mph 1004.7mb 38f
2:00am 11 14 mph 1005.2mb 39f
1:00am 15 16 mph 1005.4mb 41f
12:00am 11 13 mph 1006.1mb 41f
Sun 02/07 11:00pm 14 16 mph 1007mb 42f
10:00pm 16 18 mph 1007.4mb 42f
9:00pm 21 24 mph 1007.8mb 44f
8:00pm 21 23 mph 1008.5mb 44f
7:00pm 18 20 mph 1009.2mb 45f
6:00pm 20 22 mph 1009.5mb 46f
5:00pm 20 22 mph 1009.7mb 45f
4:00pm 22 24 mph 1009.9mb 45f
3:00pm 20 25 mph 1009.8mb 46f
2:00pm 20 26 mph 1010.4mb 46f
1:00pm 18 20 mph 1011.9mb 44f
12:00pm 16 18 mph 1013.1mb 42f
11:00am 16 17 mph 1014.2mb 40f
10:00am 15 16 mph 1015.4mb 38f
9:00am 14 16 mph 1015.9mb 37f
8:00am 14 16 mph 1016mb 36f
7:00am 10 13 mph 1016.5mb 36f
6:00am 13 15 mph 1017.1mb 36f
5:00am 10 13 mph 1018mb 35f
4:00am 10 15 mph 1018.9mb 34f
3:00am 10 11 mph 1019.7mb 34f
2:00am 10 14 mph 1020.4mb 34f
1:00am 9 13 mph 1020.7mb 34f
12:00am 8 14 mph 1021.2mb 34f
Sat 02/06 11:00pm 9 14 mph 1021.8mb 34f
10:00pm 14 15 mph 1022.4mb 35f
9:00pm 13 14 mph 1022.7mb 35f
8:00pm 13 14 mph 1023.1mb 35f
7:00pm 10 11 mph 1023.4mb 35f
6:00pm 13 14 mph 1023.4mb 35f
5:00pm 14 16 mph 1023.4mb 36f
4:00pm 15 18 mph 1023.5mb 35f
3:00pm 17 21 mph 1023.8mb 34f
2:00pm 16 17 mph 1023.6mb 34f
1:00pm 17 18 mph 1024.2mb 33f
12:00pm 15 16 mph 1025.1mb 33f
11:00am 8 13 mph 1026.2mb 31f
10:00am 15 17 mph 1027.1mb 30f
9:00am 15 16 mph 1027.1mb 29f
8:00am 13 14 mph 1027.3mb 29f
7:00am 14 16 mph 1027.3mb 29f
6:00am 13 14 mph 1026.8mb 29f
5:00am 14 15 mph 1026.6mb 29f
4:00am 14 16 mph 1026.3mb 30f
3:00am 17 20 mph 1026.1mb 30f
2:00am 17 18 mph 1026.1mb 31f
1:00am 17 18 mph 1025.8mb 31f
12:00am 17 18 mph 1025.9mb 32f
Fri 02/05 11:00pm 20 21 mph 1025.9mb 33f
10:00pm 16 18 mph 1025.9mb 34f
9:00pm 16 17 mph 1026.3mb 35f
8:00pm 9 14 mph 1026.8mb 36f
7:00pm 14 16 mph 1026.9mb 36f
6:00pm 10 11 mph 1027.5mb 36f
5:00pm 9 11 mph 1027.5mb 36f
4:00pm 11 13 mph 1027.2mb 37f
3:00pm 8 10 mph 1027.3mb 37f
2:00pm 7 8 mph 1027.3mb 36f
1:00pm 6 9 mph 1027.7mb 35f
12:00pm 6 9 mph 1028.5mb 33f
11:00am 9 11 mph 1029.4mb 31f